createdAt,value
2019-02-05T07:55:15.022Z,17.47
2019-02-05T08:00:17.186Z,24.33
2019-02-05T08:05:16.534Z,21.73
2019-02-05T08:10:13.510Z,18.50
2019-02-05T08:15:11.582Z,18.73
2019-02-05T08:20:09.246Z,17.87
2019-02-05T08:25:06.700Z,20.60
2019-02-05T08:30:02.464Z,17.93
2019-02-05T08:34:58.110Z,15.63
2019-02-05T08:39:53.862Z,13.87
2019-02-05T08:44:49.688Z,15.70
2019-02-05T08:49:45.550Z,15.43
2019-02-05T08:54:41.524Z,12.57
2019-02-05T08:59:37.339Z,13.13
2019-02-05T09:04:33.303Z,15.17
2019-02-05T09:09:29.236Z,15.13
2019-02-05T09:14:25.068Z,15.07
2019-02-05T09:19:21.224Z,15.87
2019-02-05T09:24:17.696Z,15.77
2019-02-05T09:29:13.567Z,14.80
2019-02-05T09:34:09.885Z,16.60
2019-02-05T09:39:08.639Z,15.03
2019-02-05T09:44:04.718Z,14.83
2019-02-05T09:49:00.587Z,14.30
2019-02-05T09:53:56.453Z,13.10
2019-02-05T09:58:52.413Z,15.70
2019-02-05T10:03:50.493Z,13.90
2019-02-05T10:08:46.411Z,12.37
2019-02-05T10:13:42.405Z,12.90
2019-02-05T10:18:38.337Z,12.67
2019-02-05T10:23:34.390Z,14.07
2019-02-05T10:28:31.808Z,12.90
2019-02-05T10:33:28.112Z,12.70
2019-02-05T10:38:24.351Z,12.03
2019-02-05T10:43:20.468Z,9.47
2019-02-05T10:48:16.596Z,10.03
2019-02-05T10:53:12.691Z,8.97
2019-02-05T10:58:11.856Z,9.33
2019-02-05T11:03:08.791Z,8.97
2019-02-05T11:08:05.852Z,8.97
2019-02-05T11:13:03.004Z,8.20
2019-02-05T11:17:59.523Z,8.67
2019-02-05T11:22:56.198Z,9.27
2019-02-05T11:27:52.386Z,8.90
2019-02-05T11:32:48.577Z,8.90
2019-02-05T11:37:44.873Z,7.93
2019-02-05T11:42:41.098Z,8.17
2019-02-05T11:47:38.265Z,8.67
2019-02-05T11:52:34.148Z,8.47
2019-02-05T11:57:30.033Z,7.93
2019-02-05T12:02:25.805Z,8.17
2019-02-05T12:07:22.010Z,8.33
2019-02-05T12:12:17.836Z,8.03
2019-02-05T12:17:13.845Z,8.23
2019-02-05T12:22:09.609Z,8.77
2019-02-05T12:27:07.297Z,8.80
2019-02-05T12:32:03.316Z,9.50
2019-02-05T12:36:59.080Z,9.03
2019-02-05T12:41:54.867Z,8.80
2019-02-05T12:46:50.720Z,8.50
2019-02-05T12:51:46.547Z,8.40
2019-02-05T12:56:42.753Z,8.63
2019-02-05T13:01:38.544Z,8.47
2019-02-05T13:06:34.221Z,7.83
2019-02-05T13:11:30.048Z,8.60
2019-02-05T13:16:25.857Z,7.80
2019-02-05T13:21:21.681Z,8.20
2019-02-05T13:26:17.418Z,9.20
2019-02-05T13:31:13.377Z,9.90
2019-02-05T13:36:11.778Z,10.70
2019-02-05T13:41:07.608Z,9.83
2019-02-05T13:46:03.857Z,10.03
2019-02-05T13:50:59.598Z,9.67
2019-02-05T13:55:57.906Z,10.07
2019-02-05T14:00:56.385Z,10.40
2019-02-05T14:05:52.239Z,10.30
2019-02-05T14:10:51.089Z,10.27
2019-02-05T14:15:48.699Z,10.33
2019-02-05T14:20:44.264Z,10.60
2019-02-05T14:25:40.088Z,10.10
2019-02-05T14:30:38.384Z,10.13
2019-02-05T14:35:34.172Z,10.03
2019-02-05T14:40:29.864Z,10.93
2019-02-05T14:45:25.812Z,11.77
2019-02-05T14:50:23.950Z,11.60
2019-02-05T14:55:19.779Z,12.23
2019-02-05T15:00:31.491Z,11.47
2019-02-05T15:05:27.183Z,10.87
2019-02-05T15:10:23.118Z,12.03
2019-02-05T15:15:20.096Z,18.20
2019-02-05T15:20:23.014Z,22.33
2019-02-05T15:25:18.727Z,15.20
2019-02-05T15:30:18.354Z,12.30
2019-02-05T15:35:14.490Z,12.10
2019-02-05T15:40:11.289Z,12.40
2019-02-05T15:45:08.476Z,12.87
2019-02-05T15:50:06.373Z,11.63
2019-02-05T15:55:02.379Z,11.93
2019-02-05T15:59:59.117Z,15.23
2019-02-05T16:04:54.884Z,14.63
2019-02-05T16:09:50.886Z,13.27
2019-02-05T16:14:46.634Z,24.53
2019-02-05T16:19:42.607Z,18.87
2019-02-05T16:24:38.827Z,17.10
2019-02-05T16:29:34.506Z,13.97
2019-02-05T16:34:32.114Z,13.73
2019-02-05T16:39:27.793Z,13.70
2019-02-05T16:44:23.514Z,13.03
2019-02-05T16:49:22.204Z,14.90
2019-02-05T16:54:16.844Z,29.43
2019-02-05T16:59:12.704Z,15.27
2019-02-05T17:04:08.328Z,21.40
2019-02-05T17:09:05.827Z,15.37
2019-02-05T17:14:03.488Z,15.93
2019-02-05T17:18:59.224Z,14.93
2019-02-05T17:23:55.152Z,15.97
2019-02-05T17:28:50.875Z,15.67
2019-02-05T17:33:46.568Z,23.00
2019-02-05T17:38:42.311Z,23.77
2019-02-05T17:43:38.187Z,22.97
2019-02-05T17:48:34.306Z,20.87
2019-02-05T17:53:30.012Z,18.83
2019-02-05T17:58:25.738Z,21.43
2019-02-05T18:03:21.648Z,17.10
2019-02-05T18:08:30.190Z,16.50
2019-02-05T18:13:26.200Z,20.93
2019-02-05T18:18:21.917Z,19.63
2019-02-05T18:23:17.601Z,21.07
2019-02-05T18:28:13.404Z,82.07
2019-02-05T18:33:09.187Z,44.23
2019-02-05T18:38:05.534Z,28.50
2019-02-05T18:43:02.625Z,29.37
2019-02-05T18:48:01.471Z,31.80
2019-02-05T18:52:57.879Z,23.77
2019-02-05T18:57:54.070Z,20.57
2019-02-05T19:02:49.978Z,22.63
2019-02-05T19:07:47.129Z,24.33
2019-02-05T19:12:42.867Z,25.27
2019-02-05T19:17:41.090Z,27.50
2019-02-05T19:22:36.837Z,28.13
2019-02-05T19:27:32.530Z,26.63
2019-02-05T19:32:30.036Z,24.00
2019-02-05T19:37:26.725Z,23.50
2019-02-05T19:42:22.724Z,24.90
2019-02-05T19:47:29.124Z,21.13
2019-02-05T19:52:27.624Z,21.83
2019-02-05T19:57:24.690Z,21.40
2019-02-05T20:02:21.085Z,24.80
2019-02-05T20:07:17.059Z,31.73
2019-02-05T20:12:13.131Z,24.20
2019-02-05T20:17:09.054Z,23.70
2019-02-05T20:22:04.958Z,26.37
2019-02-05T20:27:00.728Z,26.27
2019-02-05T20:31:56.827Z,23.37
2019-02-05T20:36:53.091Z,25.20
2019-02-05T20:41:52.730Z,24.50
2019-02-05T20:46:49.199Z,26.87
2019-02-05T20:51:46.247Z,25.40
2019-02-05T20:56:44.417Z,25.37
2019-02-05T21:01:43.882Z,24.73
2019-02-05T21:06:41.197Z,20.23
2019-02-05T21:11:37.292Z,18.37
2019-02-05T21:16:33.035Z,19.47
2019-02-05T21:21:34.914Z,19.40
2019-02-05T21:26:30.615Z,22.23
2019-02-05T21:31:26.420Z,25.33
2019-02-05T21:36:22.095Z,26.67
2019-02-05T21:41:17.807Z,24.40
2019-02-05T21:46:13.717Z,25.33
2019-02-05T21:51:09.388Z,26.53
2019-02-05T21:56:05.527Z,25.47
2019-02-05T22:01:01.333Z,24.67
2019-02-05T22:05:58.092Z,25.97
2019-02-05T22:10:55.195Z,25.30
2019-02-05T22:15:50.802Z,25.30
2019-02-05T22:20:49.292Z,22.70
2019-02-05T22:25:45.286Z,22.60
2019-02-05T22:30:40.948Z,24.73
2019-02-05T22:35:37.185Z,25.23
2019-02-05T22:40:32.903Z,25.23
2019-02-05T22:45:30.731Z,27.17
2019-02-05T22:50:28.126Z,25.97
2019-02-05T22:55:23.962Z,24.17
2019-02-05T23:00:39.360Z,24.37
2019-02-05T23:06:23.318Z,24.33
2019-02-05T23:11:55.851Z,23.53
2019-02-05T23:16:52.067Z,24.37
2019-02-05T23:21:48.154Z,25.27
2019-02-05T23:26:43.850Z,23.60
2019-02-05T23:31:39.551Z,22.83
2019-02-05T23:36:35.227Z,24.17
2019-02-05T23:41:30.908Z,25.83
2019-02-05T23:46:26.648Z,31.47
2019-02-05T23:51:22.317Z,30.93
2019-02-05T23:56:25.667Z,36.40
